sensor_id;sensor_type;location;lat;lon;timestamp;P1;durP1;ratioP1;P2;durP2;ratioP2
12511;SDS011;6321;53.798;10.382;2024-03-22T00:00:32;1.73;;;1.63;;
12511;SDS011;6321;53.798;10.382;2024-03-22T00:02:58;0.73;;;0.73;;
12511;SDS011;6321;53.798;10.382;2024-03-22T00:05:24;0.40;;;0.40;;
12511;SDS011;6321;53.798;10.382;2024-03-22T00:07:49;10.13;;;9.40;;
12511;SDS011;6321;53.798;10.382;2024-03-22T00:10:16;0.33;;;0.33;;
12511;SDS011;6321;53.798;10.382;2024-03-22T00:12:42;14.07;;;1.60;;
12511;SDS011;6321;53.798;10.382;2024-03-22T00:15:07;5.40;;;1.47;;
12511;SDS011;6321;53.798;10.382;2024-03-22T00:17:33;8.47;;;4.10;;
12511;SDS011;6321;53.798;10.382;2024-03-22T00:20:00;4.53;;;4.20;;
12511;SDS011;6321;53.798;10.382;2024-03-22T00:22:26;0.40;;;0.40;;
12511;SDS011;6321;53.798;10.382;2024-03-22T00:24:52;0.70;;;0.70;;
12511;SDS011;6321;53.798;10.382;2024-03-22T00:27:18;0.70;;;0.70;;
12511;SDS011;6321;53.798;10.382;2024-03-22T00:29:44;0.90;;;0.90;;
12511;SDS011;6321;53.798;10.382;2024-03-22T00:32:10;7.17;;;1.67;;
12511;SDS011;6321;53.798;10.382;2024-03-22T00:34:36;2.00;;;1.93;;
12511;SDS011;6321;53.798;10.382;2024-03-22T00:37:02;1.97;;;1.90;;
12511;SDS011;6321;53.798;10.382;2024-03-22T00:39:28;1.37;;;1.37;;
12511;SDS011;6321;53.798;10.382;2024-03-22T00:41:54;3.60;;;2.50;;
12511;SDS011;6321;53.798;10.382;2024-03-22T00:44:20;0.80;;;0.80;;
12511;SDS011;6321;53.798;10.382;2024-03-22T00:46:46;1.60;;;1.53;;
12511;SDS011;6321;53.798;10.382;2024-03-22T00:49:12;1.23;;;0.87;;
12511;SDS011;6321;53.798;10.382;2024-03-22T00:51:38;1.63;;;1.53;;
12511;SDS011;6321;53.798;10.382;2024-03-22T00:54:04;1.70;;;1.60;;
12511;SDS011;6321;53.798;10.382;2024-03-22T00:56:30;1.90;;;1.80;;
12511;SDS011;6321;53.798;10.382;2024-03-22T00:58:56;1.00;;;1.00;;
12511;SDS011;6321;53.798;10.382;2024-03-22T01:01:22;10.90;;;3.63;;
12511;SDS011;6321;53.798;10.382;2024-03-22T01:03:48;3.07;;;1.33;;
12511;SDS011;6321;53.798;10.382;2024-03-22T01:06:14;3.43;;;3.23;;
12511;SDS011;6321;53.798;10.382;2024-03-22T01:08:40;5.93;;;1.53;;
12511;SDS011;6321;53.798;10.382;2024-03-22T01:11:06;2.60;;;1.70;;
12511;SDS011;6321;53.798;10.382;2024-03-22T01:13:32;1.60;;;1.50;;
12511;SDS011;6321;53.798;10.382;2024-03-22T01:15:58;2.10;;;2.00;;
12511;SDS011;6321;53.798;10.382;2024-03-22T01:18:24;7.87;;;4.13;;
12511;SDS011;6321;53.798;10.382;2024-03-22T01:20:50;3.93;;;2.07;;
12511;SDS011;6321;53.798;10.382;2024-03-22T01:23:16;2.83;;;2.50;;
12511;SDS011;6321;53.798;10.382;2024-03-22T01:25:44;3.73;;;1.53;;
12511;SDS011;6321;53.798;10.382;2024-03-22T01:28:10;5.80;;;3.73;;
12511;SDS011;6321;53.798;10.382;2024-03-22T01:30:36;2.50;;;2.20;;
12511;SDS011;6321;53.798;10.382;2024-03-22T01:33:02;5.97;;;4.23;;
12511;SDS011;6321;53.798;10.382;2024-03-22T01:35:28;5.73;;;4.73;;
12511;SDS011;6321;53.798;10.382;2024-03-22T01:37:54;13.37;;;3.47;;
12511;SDS011;6321;53.798;10.382;2024-03-22T01:40:20;2.83;;;2.17;;
12511;SDS011;6321;53.798;10.382;2024-03-22T01:42:46;8.17;;;3.80;;
12511;SDS011;6321;53.798;10.382;2024-03-22T01:45:13;1.00;;;1.00;;
12511;SDS011;6321;53.798;10.382;2024-03-22T01:47:40;2.80;;;1.53;;
12511;SDS011;6321;53.798;10.382;2024-03-22T01:50:06;2.33;;;1.00;;
12511;SDS011;6321;53.798;10.382;2024-03-22T01:52:33;1.93;;;1.90;;
12511;SDS011;6321;53.798;10.382;2024-03-22T01:54:59;4.80;;;4.40;;
12511;SDS011;6321;53.798;10.382;2024-03-22T01:57:25;2.60;;;2.50;;
12511;SDS011;6321;53.798;10.382;2024-03-22T01:59:51;3.20;;;2.90;;
12511;SDS011;6321;53.798;10.382;2024-03-22T02:02:19;1.83;;;1.73;;
12511;SDS011;6321;53.798;10.382;2024-03-22T02:04:45;1.80;;;1.70;;
12511;SDS011;6321;53.798;10.382;2024-03-22T02:07:11;1.93;;;1.77;;
12511;SDS011;6321;53.798;10.382;2024-03-22T02:09:37;8.27;;;4.47;;
12511;SDS011;6321;53.798;10.382;2024-03-22T02:12:03;0.63;;;0.63;;
12511;SDS011;6321;53.798;10.382;2024-03-22T02:14:29;8.87;;;3.80;;
12511;SDS011;6321;53.798;10.382;2024-03-22T02:16:55;6.53;;;4.13;;
12511;SDS011;6321;53.798;10.382;2024-03-22T02:19:21;2.00;;;1.33;;
12511;SDS011;6321;53.798;10.382;2024-03-22T02:21:47;2.87;;;2.20;;
12511;SDS011;6321;53.798;10.382;2024-03-22T02:24:13;1.53;;;1.50;;
12511;SDS011;6321;53.798;10.382;2024-03-22T02:26:39;7.00;;;3.23;;
12511;SDS011;6321;53.798;10.382;2024-03-22T02:29:05;3.60;;;2.57;;
12511;SDS011;6321;53.798;10.382;2024-03-22T02:31:31;3.50;;;3.23;;
12511;SDS011;6321;53.798;10.382;2024-03-22T02:33:57;0.70;;;0.70;;
12511;SDS011;6321;53.798;10.382;2024-03-22T02:36:23;2.00;;;1.90;;
12511;SDS011;6321;53.798;10.382;2024-03-22T02:38:49;3.17;;;2.97;;
12511;SDS011;6321;53.798;10.382;2024-03-22T02:41:15;2.47;;;2.37;;
12511;SDS011;6321;53.798;10.382;2024-03-22T02:43:41;4.90;;;4.33;;
12511;SDS011;6321;53.798;10.382;2024-03-22T02:46:07;4.87;;;2.83;;
12511;SDS011;6321;53.798;10.382;2024-03-22T02:48:33;6.63;;;3.20;;
12511;SDS011;6321;53.798;10.382;2024-03-22T02:51:00;3.40;;;2.30;;
12511;SDS011;6321;53.798;10.382;2024-03-22T02:53:26;4.57;;;2.97;;
12511;SDS011;6321;53.798;10.382;2024-03-22T02:55:52;2.63;;;2.43;;
12511;SDS011;6321;53.798;10.382;2024-03-22T02:58:18;5.27;;;3.43;;
12511;SDS011;6321;53.798;10.382;2024-03-22T03:00:44;4.77;;;2.60;;
12511;SDS011;6321;53.798;10.382;2024-03-22T03:03:10;4.43;;;4.10;;
12511;SDS011;6321;53.798;10.382;2024-03-22T03:05:36;6.17;;;5.70;;
12511;SDS011;6321;53.798;10.382;2024-03-22T03:08:02;1.07;;;1.07;;
12511;SDS011;6321;53.798;10.382;2024-03-22T03:10:29;4.10;;;3.73;;
12511;SDS011;6321;53.798;10.382;2024-03-22T03:12:55;4.07;;;3.53;;
12511;SDS011;6321;53.798;10.382;2024-03-22T03:15:21;2.60;;;2.40;;
12511;SDS011;6321;53.798;10.382;2024-03-22T03:17:47;9.20;;;5.33;;
12511;SDS011;6321;53.798;10.382;2024-03-22T03:20:13;5.50;;;3.40;;
12511;SDS011;6321;53.798;10.382;2024-03-22T03:22:42;3.43;;;3.10;;
12511;SDS011;6321;53.798;10.382;2024-03-22T03:25:08;11.53;;;4.70;;
12511;SDS011;6321;53.798;10.382;2024-03-22T03:27:34;3.77;;;3.23;;
12511;SDS011;6321;53.798;10.382;2024-03-22T03:30:01;2.77;;;2.20;;
12511;SDS011;6321;53.798;10.382;2024-03-22T03:32:27;4.57;;;4.17;;
12511;SDS011;6321;53.798;10.382;2024-03-22T03:34:53;11.30;;;7.93;;
12511;SDS011;6321;53.798;10.382;2024-03-22T03:37:19;5.77;;;4.50;;
12511;SDS011;6321;53.798;10.382;2024-03-22T03:39:45;5.30;;;3.80;;
12511;SDS011;6321;53.798;10.382;2024-03-22T03:42:11;3.07;;;2.33;;
12511;SDS011;6321;53.798;10.382;2024-03-22T03:44:37;4.53;;;3.60;;
12511;SDS011;6321;53.798;10.382;2024-03-22T03:47:03;4.23;;;2.77;;
12511;SDS011;6321;53.798;10.382;2024-03-22T03:49:29;15.53;;;7.00;;
12511;SDS011;6321;53.798;10.382;2024-03-22T03:51:55;1.47;;;1.43;;
12511;SDS011;6321;53.798;10.382;2024-03-22T03:54:21;6.13;;;4.40;;
12511;SDS011;6321;53.798;10.382;2024-03-22T03:56:47;3.50;;;2.53;;
12511;SDS011;6321;53.798;10.382;2024-03-22T03:59:13;10.43;;;5.00;;
12511;SDS011;6321;53.798;10.382;2024-03-22T04:01:39;9.23;;;7.00;;
12511;SDS011;6321;53.798;10.382;2024-03-22T04:04:05;3.03;;;2.77;;
12511;SDS011;6321;53.798;10.382;2024-03-22T04:06:31;5.77;;;4.00;;
12511;SDS011;6321;53.798;10.382;2024-03-22T04:08:57;3.53;;;3.33;;
12511;SDS011;6321;53.798;10.382;2024-03-22T04:11:23;15.07;;;3.43;;
12511;SDS011;6321;53.798;10.382;2024-03-22T04:13:49;2.03;;;1.93;;
12511;SDS011;6321;53.798;10.382;2024-03-22T04:16:15;3.60;;;2.77;;
12511;SDS011;6321;53.798;10.382;2024-03-22T04:18:41;5.17;;;2.43;;
12511;SDS011;6321;53.798;10.382;2024-03-22T04:21:07;4.63;;;4.23;;
12511;SDS011;6321;53.798;10.382;2024-03-22T04:23:33;4.60;;;4.30;;
12511;SDS011;6321;53.798;10.382;2024-03-22T04:26:00;3.77;;;2.70;;
12511;SDS011;6321;53.798;10.382;2024-03-22T04:28:26;16.43;;;6.27;;
12511;SDS011;6321;53.798;10.382;2024-03-22T04:30:59;2.40;;;2.23;;
12511;SDS011;6321;53.798;10.382;2024-03-22T04:33:26;2.30;;;2.20;;
12511;SDS011;6321;53.798;10.382;2024-03-22T04:35:52;2.27;;;2.17;;
12511;SDS011;6321;53.798;10.382;2024-03-22T04:38:18;5.47;;;3.40;;
12511;SDS011;6321;53.798;10.382;2024-03-22T04:40:44;4.13;;;3.73;;
12511;SDS011;6321;53.798;10.382;2024-03-22T04:43:10;1.70;;;1.20;;
12511;SDS011;6321;53.798;10.382;2024-03-22T04:45:36;2.63;;;2.53;;
12511;SDS011;6321;53.798;10.382;2024-03-22T04:48:03;2.40;;;2.27;;
12511;SDS011;6321;53.798;10.382;2024-03-22T04:50:29;1.17;;;1.17;;
12511;SDS011;6321;53.798;10.382;2024-03-22T04:52:55;10.03;;;6.43;;
12511;SDS011;6321;53.798;10.382;2024-03-22T04:55:21;12.00;;;7.83;;
12511;SDS011;6321;53.798;10.382;2024-03-22T04:57:47;5.77;;;5.17;;
12511;SDS011;6321;53.798;10.382;2024-03-22T05:00:14;6.33;;;3.40;;
12511;SDS011;6321;53.798;10.382;2024-03-22T05:02:40;10.37;;;6.80;;
12511;SDS011;6321;53.798;10.382;2024-03-22T05:05:06;11.40;;;7.60;;
12511;SDS011;6321;53.798;10.382;2024-03-22T05:07:35;11.97;;;6.90;;
12511;SDS011;6321;53.798;10.382;2024-03-22T05:10:01;9.67;;;8.70;;
12511;SDS011;6321;53.798;10.382;2024-03-22T05:12:28;6.93;;;5.33;;
12511;SDS011;6321;53.798;10.382;2024-03-22T05:14:54;2.30;;;2.10;;
12511;SDS011;6321;53.798;10.382;2024-03-22T05:17:20;6.67;;;4.07;;
12511;SDS011;6321;53.798;10.382;2024-03-22T05:19:46;1.40;;;1.40;;
12511;SDS011;6321;53.798;10.382;2024-03-22T05:22:12;4.73;;;4.37;;
12511;SDS011;6321;53.798;10.382;2024-03-22T05:24:38;6.07;;;4.50;;
12511;SDS011;6321;53.798;10.382;2024-03-22T05:27:04;7.17;;;4.47;;
12511;SDS011;6321;53.798;10.382;2024-03-22T05:29:30;16.07;;;9.53;;
12511;SDS011;6321;53.798;10.382;2024-03-22T05:31:56;20.90;;;11.37;;
12511;SDS011;6321;53.798;10.382;2024-03-22T05:34:22;2.63;;;2.03;;
12511;SDS011;6321;53.798;10.382;2024-03-22T05:36:48;2.80;;;2.63;;
12511;SDS011;6321;53.798;10.382;2024-03-22T05:39:14;6.03;;;5.63;;
12511;SDS011;6321;53.798;10.382;2024-03-22T05:41:40;3.87;;;3.43;;
12511;SDS011;6321;53.798;10.382;2024-03-22T05:44:06;2.33;;;2.23;;
12511;SDS011;6321;53.798;10.382;2024-03-22T05:46:32;11.57;;;7.03;;
12511;SDS011;6321;53.798;10.382;2024-03-22T05:48:58;11.30;;;10.23;;
12511;SDS011;6321;53.798;10.382;2024-03-22T05:51:24;9.67;;;7.83;;
12511;SDS011;6321;53.798;10.382;2024-03-22T05:53:50;20.33;;;11.10;;
12511;SDS011;6321;53.798;10.382;2024-03-22T05:56:16;17.60;;;10.10;;
12511;SDS011;6321;53.798;10.382;2024-03-22T05:58:42;5.33;;;4.97;;
12511;SDS011;6321;53.798;10.382;2024-03-22T06:01:08;2.43;;;2.30;;
12511;SDS011;6321;53.798;10.382;2024-03-22T06:03:34;7.87;;;6.27;;
12511;SDS011;6321;53.798;10.382;2024-03-22T06:06:00;17.57;;;8.40;;
12511;SDS011;6321;53.798;10.382;2024-03-22T06:08:26;7.07;;;6.47;;
12511;SDS011;6321;53.798;10.382;2024-03-22T06:10:54;6.03;;;5.10;;
12511;SDS011;6321;53.798;10.382;2024-03-22T06:13:20;6.60;;;4.83;;
12511;SDS011;6321;53.798;10.382;2024-03-22T06:15:49;8.67;;;4.27;;
12511;SDS011;6321;53.798;10.382;2024-03-22T06:18:16;13.77;;;8.07;;
12511;SDS011;6321;53.798;10.382;2024-03-22T06:20:42;6.13;;;5.53;;
12511;SDS011;6321;53.798;10.382;2024-03-22T06:23:08;10.73;;;7.20;;
12511;SDS011;6321;53.798;10.382;2024-03-22T06:25:34;4.43;;;4.23;;
12511;SDS011;6321;53.798;10.382;2024-03-22T06:28:01;8.67;;;7.93;;
12511;SDS011;6321;53.798;10.382;2024-03-22T06:30:27;23.13;;;13.27;;
12511;SDS011;6321;53.798;10.382;2024-03-22T06:32:53;15.77;;;10.50;;
12511;SDS011;6321;53.798;10.382;2024-03-22T06:35:22;10.00;;;3.43;;
12511;SDS011;6321;53.798;10.382;2024-03-22T06:37:48;6.60;;;2.60;;
12511;SDS011;6321;53.798;10.382;2024-03-22T06:40:15;7.37;;;5.73;;
12511;SDS011;6321;53.798;10.382;2024-03-22T06:42:41;6.33;;;4.67;;
12511;SDS011;6321;53.798;10.382;2024-03-22T06:45:07;15.57;;;9.00;;
12511;SDS011;6321;53.798;10.382;2024-03-22T06:47:33;4.97;;;4.53;;
12511;SDS011;6321;53.798;10.382;2024-03-22T06:49:59;9.90;;;7.83;;
12511;SDS011;6321;53.798;10.382;2024-03-22T06:52:25;17.73;;;11.13;;
12511;SDS011;6321;53.798;10.382;2024-03-22T06:54:51;13.43;;;7.13;;
12511;SDS011;6321;53.798;10.382;2024-03-22T06:57:18;2.67;;;2.43;;
12511;SDS011;6321;53.798;10.382;2024-03-22T06:59:44;8.83;;;4.33;;
12511;SDS011;6321;53.798;10.382;2024-03-22T07:02:10;5.50;;;4.97;;
12511;SDS011;6321;53.798;10.382;2024-03-22T07:04:38;10.83;;;4.90;;
12511;SDS011;6321;53.798;10.382;2024-03-22T07:07:04;13.33;;;6.27;;
12511;SDS011;6321;53.798;10.382;2024-03-22T07:09:32;3.43;;;3.07;;
12511;SDS011;6321;53.798;10.382;2024-03-22T07:11:58;5.73;;;4.20;;
12511;SDS011;6321;53.798;10.382;2024-03-22T07:14:24;3.83;;;3.60;;
12511;SDS011;6321;53.798;10.382;2024-03-22T07:16:50;5.80;;;5.07;;
12511;SDS011;6321;53.798;10.382;2024-03-22T07:19:18;5.73;;;5.23;;
12511;SDS011;6321;53.798;10.382;2024-03-22T07:21:45;3.27;;;3.17;;
12511;SDS011;6321;53.798;10.382;2024-03-22T07:24:11;17.20;;;10.80;;
12511;SDS011;6321;53.798;10.382;2024-03-22T07:26:37;21.80;;;9.90;;
12511;SDS011;6321;53.798;10.382;2024-03-22T07:29:03;8.80;;;7.87;;
12511;SDS011;6321;53.798;10.382;2024-03-22T07:31:29;8.70;;;4.60;;
12511;SDS011;6321;53.798;10.382;2024-03-22T07:33:55;10.60;;;7.20;;
12511;SDS011;6321;53.798;10.382;2024-03-22T07:36:21;3.73;;;3.60;;
12511;SDS011;6321;53.798;10.382;2024-03-22T07:38:47;16.43;;;8.07;;
12511;SDS011;6321;53.798;10.382;2024-03-22T07:41:17;11.03;;;6.27;;
12511;SDS011;6321;53.798;10.382;2024-03-22T07:43:43;17.20;;;9.13;;
12511;SDS011;6321;53.798;10.382;2024-03-22T07:46:09;15.90;;;7.80;;
12511;SDS011;6321;53.798;10.382;2024-03-22T07:48:35;17.27;;;7.67;;
12511;SDS011;6321;53.798;10.382;2024-03-22T07:51:02;11.63;;;8.93;;
12511;SDS011;6321;53.798;10.382;2024-03-22T07:53:28;19.50;;;10.87;;
12511;SDS011;6321;53.798;10.382;2024-03-22T07:55:54;17.00;;;9.70;;
12511;SDS011;6321;53.798;10.382;2024-03-22T07:58:20;23.27;;;13.07;;
12511;SDS011;6321;53.798;10.382;2024-03-22T08:00:46;6.47;;;5.67;;
12511;SDS011;6321;53.798;10.382;2024-03-22T08:03:14;18.37;;;8.63;;
12511;SDS011;6321;53.798;10.382;2024-03-22T08:05:40;13.70;;;9.53;;
12511;SDS011;6321;53.798;10.382;2024-03-22T08:08:06;18.63;;;10.33;;
12511;SDS011;6321;53.798;10.382;2024-03-22T08:10:32;6.33;;;4.90;;
12511;SDS011;6321;53.798;10.382;2024-03-22T08:12:59;5.90;;;5.33;;
12511;SDS011;6321;53.798;10.382;2024-03-22T08:15:25;30.10;;;12.77;;
12511;SDS011;6321;53.798;10.382;2024-03-22T08:17:52;1.90;;;1.83;;
12511;SDS011;6321;53.798;10.382;2024-03-22T08:20:18;34.60;;;7.93;;
12511;SDS011;6321;53.798;10.382;2024-03-22T08:22:44;21.90;;;12.03;;
12511;SDS011;6321;53.798;10.382;2024-03-22T08:25:10;14.50;;;10.90;;
12511;SDS011;6321;53.798;10.382;2024-03-22T08:27:37;11.83;;;7.23;;
12511;SDS011;6321;53.798;10.382;2024-03-22T08:30:03;5.63;;;5.13;;
12511;SDS011;6321;53.798;10.382;2024-03-22T08:32:29;6.60;;;4.53;;
12511;SDS011;6321;53.798;10.382;2024-03-22T08:34:55;7.23;;;4.37;;
12511;SDS011;6321;53.798;10.382;2024-03-22T08:37:21;13.80;;;9.47;;
12511;SDS011;6321;53.798;10.382;2024-03-22T08:39:47;11.43;;;7.97;;
12511;SDS011;6321;53.798;10.382;2024-03-22T08:42:13;9.57;;;7.70;;
12511;SDS011;6321;53.798;10.382;2024-03-22T08:44:39;5.73;;;5.23;;
12511;SDS011;6321;53.798;10.382;2024-03-22T08:47:05;4.07;;;3.27;;
12511;SDS011;6321;53.798;10.382;2024-03-22T08:49:31;18.10;;;7.47;;
12511;SDS011;6321;53.798;10.382;2024-03-22T08:51:57;22.50;;;10.50;;
12511;SDS011;6321;53.798;10.382;2024-03-22T08:54:23;2.93;;;2.30;;
12511;SDS011;6321;53.798;10.382;2024-03-22T08:56:49;10.83;;;5.00;;
12511;SDS011;6321;53.798;10.382;2024-03-22T08:59:15;15.93;;;10.13;;
12511;SDS011;6321;53.798;10.382;2024-03-22T09:01:41;7.90;;;5.73;;
12511;SDS011;6321;53.798;10.382;2024-03-22T09:04:07;8.17;;;5.53;;
12511;SDS011;6321;53.798;10.382;2024-03-22T09:06:33;15.87;;;9.23;;
12511;SDS011;6321;53.798;10.382;2024-03-22T09:08:59;11.90;;;7.03;;
12511;SDS011;6321;53.798;10.382;2024-03-22T09:11:25;4.23;;;4.03;;
12511;SDS011;6321;53.798;10.382;2024-03-22T09:13:52;12.33;;;8.93;;
12511;SDS011;6321;53.798;10.382;2024-03-22T09:16:19;11.97;;;8.43;;
12511;SDS011;6321;53.798;10.382;2024-03-22T09:18:45;8.73;;;8.07;;
12511;SDS011;6321;53.798;10.382;2024-03-22T09:21:11;13.17;;;10.53;;
12511;SDS011;6321;53.798;10.382;2024-03-22T09:23:37;11.47;;;6.90;;
12511;SDS011;6321;53.798;10.382;2024-03-22T09:26:03;13.87;;;7.03;;
12511;SDS011;6321;53.798;10.382;2024-03-22T09:28:29;18.10;;;8.60;;
12511;SDS011;6321;53.798;10.382;2024-03-22T09:30:55;5.03;;;4.53;;
12511;SDS011;6321;53.798;10.382;2024-03-22T09:33:21;18.00;;;10.30;;
12511;SDS011;6321;53.798;10.382;2024-03-22T09:35:47;8.73;;;6.70;;
12511;SDS011;6321;53.798;10.382;2024-03-22T09:38:13;11.37;;;7.07;;
12511;SDS011;6321;53.798;10.382;2024-03-22T09:40:40;9.60;;;7.27;;
12511;SDS011;6321;53.798;10.382;2024-03-22T09:43:07;6.53;;;5.97;;
12511;SDS011;6321;53.798;10.382;2024-03-22T09:45:33;15.00;;;12.23;;
12511;SDS011;6321;53.798;10.382;2024-03-22T09:47:59;3.87;;;3.57;;
12511;SDS011;6321;53.798;10.382;2024-03-22T09:50:26;7.90;;;6.63;;
12511;SDS011;6321;53.798;10.382;2024-03-22T09:52:52;9.83;;;6.80;;
12511;SDS011;6321;53.798;10.382;2024-03-22T09:55:22;10.13;;;7.37;;
12511;SDS011;6321;53.798;10.382;2024-03-22T09:57:48;20.80;;;11.77;;
12511;SDS011;6321;53.798;10.382;2024-03-22T10:00:16;14.07;;;10.03;;
12511;SDS011;6321;53.798;10.382;2024-03-22T10:02:43;13.03;;;9.17;;
12511;SDS011;6321;53.798;10.382;2024-03-22T10:05:09;6.90;;;5.43;;
12511;SDS011;6321;53.798;10.382;2024-03-22T10:07:35;20.37;;;12.93;;
12511;SDS011;6321;53.798;10.382;2024-03-22T10:10:01;19.60;;;9.17;;
12511;SDS011;6321;53.798;10.382;2024-03-22T10:12:28;10.57;;;6.33;;
12511;SDS011;6321;53.798;10.382;2024-03-22T10:14:54;5.20;;;4.80;;
12511;SDS011;6321;53.798;10.382;2024-03-22T10:17:21;4.33;;;3.93;;
12511;SDS011;6321;53.798;10.382;2024-03-22T10:19:50;19.07;;;10.57;;
12511;SDS011;6321;53.798;10.382;2024-03-22T10:22:16;9.37;;;7.00;;
12511;SDS011;6321;53.798;10.382;2024-03-22T10:24:42;23.37;;;9.83;;
12511;SDS011;6321;53.798;10.382;2024-03-22T10:27:08;17.33;;;9.50;;
12511;SDS011;6321;53.798;10.382;2024-03-22T10:29:37;12.17;;;7.43;;
12511;SDS011;6321;53.798;10.382;2024-03-22T10:32:04;6.90;;;3.93;;
12511;SDS011;6321;53.798;10.382;2024-03-22T10:34:30;4.23;;;3.83;;
12511;SDS011;6321;53.798;10.382;2024-03-22T10:36:57;13.97;;;6.93;;
12511;SDS011;6321;53.798;10.382;2024-03-22T10:39:25;10.73;;;6.77;;
12511;SDS011;6321;53.798;10.382;2024-03-22T10:41:52;10.23;;;8.20;;
12511;SDS011;6321;53.798;10.382;2024-03-22T10:44:18;14.90;;;7.37;;
12511;SDS011;6321;53.798;10.382;2024-03-22T10:46:47;7.50;;;5.90;;
12511;SDS011;6321;53.798;10.382;2024-03-22T10:49:15;6.30;;;5.67;;
12511;SDS011;6321;53.798;10.382;2024-03-22T10:51:42;9.23;;;7.77;;
12511;SDS011;6321;53.798;10.382;2024-03-22T10:54:08;7.13;;;5.60;;
12511;SDS011;6321;53.798;10.382;2024-03-22T10:56:35;11.10;;;8.77;;
12511;SDS011;6321;53.798;10.382;2024-03-22T10:59:04;2.33;;;2.20;;
12511;SDS011;6321;53.798;10.382;2024-03-22T11:01:31;4.77;;;4.47;;
12511;SDS011;6321;53.798;10.382;2024-03-22T11:04:05;11.67;;;8.50;;
12511;SDS011;6321;53.798;10.382;2024-03-22T11:06:37;5.83;;;4.90;;
12511;SDS011;6321;53.798;10.382;2024-03-22T11:09:03;9.40;;;6.13;;
12511;SDS011;6321;53.798;10.382;2024-03-22T11:11:29;5.43;;;4.90;;
12511;SDS011;6321;53.798;10.382;2024-03-22T11:13:56;8.80;;;5.27;;
12511;SDS011;6321;53.798;10.382;2024-03-22T11:16:22;11.20;;;5.53;;
12511;SDS011;6321;53.798;10.382;2024-03-22T11:18:48;16.83;;;9.43;;
12511;SDS011;6321;53.798;10.382;2024-03-22T11:21:15;9.63;;;5.07;;
12511;SDS011;6321;53.798;10.382;2024-03-22T11:23:44;7.30;;;5.13;;
12511;SDS011;6321;53.798;10.382;2024-03-22T11:26:10;4.97;;;3.83;;
12511;SDS011;6321;53.798;10.382;2024-03-22T11:28:37;2.57;;;2.47;;
12511;SDS011;6321;53.798;10.382;2024-03-22T11:31:03;10.07;;;5.53;;
12511;SDS011;6321;53.798;10.382;2024-03-22T11:33:32;6.20;;;3.70;;
12511;SDS011;6321;53.798;10.382;2024-03-22T11:35:58;3.83;;;3.10;;
12511;SDS011;6321;53.798;10.382;2024-03-22T11:38:26;3.87;;;3.53;;
12511;SDS011;6321;53.798;10.382;2024-03-22T11:40:55;14.77;;;4.80;;
12511;SDS011;6321;53.798;10.382;2024-03-22T11:43:27;5.30;;;4.37;;
12511;SDS011;6321;53.798;10.382;2024-03-22T11:45:54;16.00;;;8.80;;
12511;SDS011;6321;53.798;10.382;2024-03-22T11:48:20;14.93;;;6.57;;
12511;SDS011;6321;53.798;10.382;2024-03-22T11:50:46;8.63;;;6.30;;
12511;SDS011;6321;53.798;10.382;2024-03-22T11:53:12;6.73;;;4.53;;
12511;SDS011;6321;53.798;10.382;2024-03-22T11:55:38;8.50;;;5.83;;
12511;SDS011;6321;53.798;10.382;2024-03-22T11:58:04;5.87;;;3.77;;
12511;SDS011;6321;53.798;10.382;2024-03-22T12:00:30;4.03;;;3.73;;
12511;SDS011;6321;53.798;10.382;2024-03-22T12:02:56;3.83;;;2.00;;
12511;SDS011;6321;53.798;10.382;2024-03-22T12:05:22;7.83;;;6.17;;
12511;SDS011;6321;53.798;10.382;2024-03-22T12:07:51;21.37;;;3.53;;
12511;SDS011;6321;53.798;10.382;2024-03-22T12:10:17;4.37;;;3.00;;
12511;SDS011;6321;53.798;10.382;2024-03-22T12:12:43;9.50;;;3.70;;
12511;SDS011;6321;53.798;10.382;2024-03-22T12:15:09;7.27;;;4.17;;
12511;SDS011;6321;53.798;10.382;2024-03-22T12:17:35;6.90;;;4.50;;
12511;SDS011;6321;53.798;10.382;2024-03-22T12:20:02;3.37;;;2.90;;
12511;SDS011;6321;53.798;10.382;2024-03-22T12:22:29;1.47;;;1.47;;
12511;SDS011;6321;53.798;10.382;2024-03-22T12:24:55;3.40;;;2.47;;
12511;SDS011;6321;53.798;10.382;2024-03-22T12:27:22;4.30;;;3.23;;
12511;SDS011;6321;53.798;10.382;2024-03-22T12:29:48;3.07;;;2.83;;
12511;SDS011;6321;53.798;10.382;2024-03-22T12:32:14;6.03;;;2.43;;
12511;SDS011;6321;53.798;10.382;2024-03-22T12:34:40;3.40;;;2.60;;
12511;SDS011;6321;53.798;10.382;2024-03-22T12:37:06;1.70;;;1.47;;
12511;SDS011;6321;53.798;10.382;2024-03-22T12:39:32;2.33;;;2.23;;
12511;SDS011;6321;53.798;10.382;2024-03-22T12:41:58;4.57;;;2.30;;
12511;SDS011;6321;53.798;10.382;2024-03-22T12:44:24;1.73;;;1.50;;
12511;SDS011;6321;53.798;10.382;2024-03-22T12:46:51;0.93;;;0.93;;
12511;SDS011;6321;53.798;10.382;2024-03-22T12:49:17;4.23;;;3.83;;
12511;SDS011;6321;53.798;10.382;2024-03-22T12:51:43;2.93;;;2.20;;
12511;SDS011;6321;53.798;10.382;2024-03-22T12:54:09;3.40;;;1.87;;
12511;SDS011;6321;53.798;10.382;2024-03-22T12:56:35;1.57;;;1.47;;
12511;SDS011;6321;53.798;10.382;2024-03-22T12:59:04;1.40;;;1.13;;
12511;SDS011;6321;53.798;10.382;2024-03-22T13:01:30;1.60;;;1.40;;
12511;SDS011;6321;53.798;10.382;2024-03-22T13:03:56;1.07;;;1.07;;
12511;SDS011;6321;53.798;10.382;2024-03-22T13:06:23;2.20;;;2.00;;
12511;SDS011;6321;53.798;10.382;2024-03-22T13:08:49;1.40;;;1.30;;
12511;SDS011;6321;53.798;10.382;2024-03-22T13:11:15;1.40;;;1.30;;
12511;SDS011;6321;53.798;10.382;2024-03-22T13:13:42;1.10;;;1.10;;
12511;SDS011;6321;53.798;10.382;2024-03-22T13:16:08;1.00;;;0.97;;
12511;SDS011;6321;53.798;10.382;2024-03-22T13:18:39;1.43;;;1.03;;
12511;SDS011;6321;53.798;10.382;2024-03-22T13:21:05;0.83;;;0.83;;
12511;SDS011;6321;53.798;10.382;2024-03-22T13:23:31;0.70;;;0.70;;
12511;SDS011;6321;53.798;10.382;2024-03-22T13:26:01;0.67;;;0.67;;
12511;SDS011;6321;53.798;10.382;2024-03-22T13:28:27;0.93;;;0.93;;
12511;SDS011;6321;53.798;10.382;2024-03-22T13:31:00;0.73;;;0.73;;
12511;SDS011;6321;53.798;10.382;2024-03-22T13:33:27;0.53;;;0.53;;
12511;SDS011;6321;53.798;10.382;2024-03-22T13:35:53;0.43;;;0.43;;
12511;SDS011;6321;53.798;10.382;2024-03-22T13:38:19;0.90;;;0.90;;
12511;SDS011;6321;53.798;10.382;2024-03-22T13:40:52;1.23;;;1.13;;
12511;SDS011;6321;53.798;10.382;2024-03-22T13:43:18;0.57;;;0.57;;
12511;SDS011;6321;53.798;10.382;2024-03-22T13:45:44;1.27;;;1.17;;
12511;SDS011;6321;53.798;10.382;2024-03-22T13:48:11;1.33;;;1.23;;
12511;SDS011;6321;53.798;10.382;2024-03-22T13:50:37;1.00;;;0.77;;
12511;SDS011;6321;53.798;10.382;2024-03-22T13:53:03;0.57;;;0.57;;
12511;SDS011;6321;53.798;10.382;2024-03-22T13:55:29;1.37;;;1.27;;
12511;SDS011;6321;53.798;10.382;2024-03-22T13:57:55;1.03;;;0.93;;
12511;SDS011;6321;53.798;10.382;2024-03-22T14:00:21;1.13;;;1.07;;
12511;SDS011;6321;53.798;10.382;2024-03-22T14:02:50;1.97;;;1.83;;
12511;SDS011;6321;53.798;10.382;2024-03-22T14:05:18;2.60;;;1.97;;
12511;SDS011;6321;53.798;10.382;2024-03-22T14:07:44;1.53;;;0.93;;
12511;SDS011;6321;53.798;10.382;2024-03-22T14:10:10;1.50;;;1.40;;
12511;SDS011;6321;53.798;10.382;2024-03-22T14:12:41;1.00;;;1.00;;
12511;SDS011;6321;53.798;10.382;2024-03-22T14:15:07;0.83;;;0.83;;
12511;SDS011;6321;53.798;10.382;2024-03-22T14:17:33;2.17;;;1.40;;
12511;SDS011;6321;53.798;10.382;2024-03-22T14:19:59;2.10;;;2.00;;
12511;SDS011;6321;53.798;10.382;2024-03-22T14:22:25;3.33;;;1.00;;
12511;SDS011;6321;53.798;10.382;2024-03-22T14:24:51;1.50;;;1.23;;
12511;SDS011;6321;53.798;10.382;2024-03-22T14:27:17;1.27;;;1.17;;
12511;SDS011;6321;53.798;10.382;2024-03-22T14:29:44;1.57;;;0.77;;
12511;SDS011;6321;53.798;10.382;2024-03-22T14:32:10;3.40;;;2.10;;
12511;SDS011;6321;53.798;10.382;2024-03-22T14:34:36;3.03;;;2.83;;
12511;SDS011;6321;53.798;10.382;2024-03-22T14:37:02;0.50;;;0.50;;